Time;durP1;ratioP1;P1;durP2;ratioP2;P2;SDS_P1;SDS_P2;PMS_P1;PMS_P2;Temp;Humidity;BMP_temperature;BMP_pressure;BME280_temperature;BME280_humidity;BME280_pressure;Samples;Min_cycle;Max_cycle;Signal;HPM_P1;HPM_P2
2022/09/08 00:01:13;;;;;;;;;1.00;0.00;;;;;;;;5128598;27;8870;-78
2022/09/08 00:03:38;;;;;;;;;1.00;1.00;;;;;;;;5125798;27;8769;-76
2022/09/08 00:06:06;;;;;;;;;1.00;0.00;;;;;;;;5135007;27;8814;-76
2022/09/08 00:08:31;;;;;;;;;1.50;0.00;;;;;;;;5115264;27;9499;-76
2022/09/08 00:10:58;;;;;;;;;1.00;0.00;;;;;;;;5127953;27;8869;-75
2022/09/08 00:13:24;;;;;;;;;0.75;0.00;;;;;;;;5131662;27;8792;-76
2022/09/08 00:15:49;;;;;;;;;0.75;0.75;;;;;;;;5139020;27;8804;-75
2022/09/08 00:18:15;;;;;;;;;1.00;1.00;;;;;;;;5136364;27;8822;-77
2022/09/08 00:20:40;;;;;;;;;2.00;0.67;;;;;;;;5115164;27;8814;-76
2022/09/08 00:23:06;;;;;;;;;2.67;0.00;;;;;;;;5145965;27;8786;-76
2022/09/08 00:25:31;;;;;;;;;1.33;1.00;;;;;;;;5148967;27;8848;-76
2022/09/08 00:27:56;;;;;;;;;2.00;0.00;;;;;;;;5146524;27;8813;-75
2022/09/08 00:30:21;;;;;;;;;2.00;1.00;;;;;;;;5144399;27;8809;-77
2022/09/08 00:32:47;;;;;;;;;1.00;1.00;;;;;;;;5143440;27;8792;-76
2022/09/08 00:35:14;;;;;;;;;2.33;1.00;;;;;;;;5135120;27;8825;-77
2022/09/08 00:37:40;;;;;;;;;1.00;1.00;;;;;;;;5112887;27;8923;-76
2022/09/08 00:40:06;;;;;;;;;2.00;0.75;;;;;;;;5134709;27;8771;-75
2022/09/08 00:42:31;;;;;;;;;2.33;1.00;;;;;;;;5133631;27;8806;-76
2022/09/08 00:44:57;;;;;;;;;2.00;0.67;;;;;;;;5134038;27;8806;-76
2022/09/08 00:47:23;;;;;;;;;0.33;0.33;;;;;;;;5133588;27;8831;-75
2022/09/08 00:49:52;;;;;;;;;0.00;0.00;;;;;;;;5144589;27;9679;-76
2022/09/08 00:52:18;;;;;;;;;3.25;2.00;;;;;;;;5210422;22;8756;-83
2022/09/08 00:54:45;;;;;;;;;1.00;1.00;;;;;;;;5132910;28;8771;-84
2022/09/08 00:57:10;;;;;;;;;0.50;0.50;;;;;;;;5119965;28;8887;-82
2022/09/08 00:59:38;;;;;;;;;0.00;0.00;;;;;;;;5139031;28;8803;-82
2022/09/08 01:02:21;;;;;;;;;0.25;0.25;;;;;;;;5126529;27;8744;-85
2022/09/08 01:04:47;;;;;;;;;0.50;0.50;;;;;;;;5140980;27;8789;-85
2022/09/08 01:13:09;;;;;;;;;0.00;0.00;;;;;;;;5140025;27;8755;-83
2022/09/08 01:15:36;;;;;;;;;1.00;1.00;;;;;;;;5121134;28;8825;-84
2022/09/08 01:18:02;;;;;;;;;2.50;0.75;;;;;;;;5121281;28;8832;-83
2022/09/08 01:20:37;;;;;;;;;1.00;1.00;;;;;;;;5121855;28;8814;-82
2022/09/08 01:23:21;;;;;;;;;0.75;0.75;;;;;;;;5120944;28;8813;-83
2022/09/08 01:25:53;;;;;;;;;0.00;0.00;;;;;;;;5127513;27;8818;-85
2022/09/08 01:28:28;;;;;;;;;2.00;1.00;;;;;;;;5149035;27;8735;-84
2022/09/08 01:30:54;;;;;;;;;1.00;1.00;;;;;;;;5121525;28;8805;-84
2022/09/08 01:33:20;;;;;;;;;1.00;1.00;;;;;;;;5124431;27;8782;-87
2022/09/08 01:35:47;;;;;;;;;0.00;0.00;;;;;;;;5123617;27;8751;-87
2022/09/08 01:38:13;;;;;;;;;1.75;1.75;;;;;;;;5123009;28;8759;-84
2022/09/08 01:40:39;;;;;;;;;0.67;0.67;;;;;;;;5123419;27;8760;-86
2022/09/08 01:43:09;;;;;;;;;3.33;2.00;;;;;;;;5140771;27;8882;-85
2022/09/08 01:45:35;;;;;;;;;0.75;0.75;;;;;;;;5122614;28;8798;-84
2022/09/08 01:48:02;;;;;;;;;1.00;1.00;;;;;;;;5101095;28;8760;-84
2022/09/08 01:50:28;;;;;;;;;1.50;0.25;;;;;;;;5121989;27;8749;-84
2022/09/08 01:52:54;;;;;;;;;5.33;1.00;;;;;;;;5139345;28;8958;-85
2022/09/08 01:55:19;;;;;;;;;1.67;0.00;;;;;;;;5140710;27;8788;-85
2022/09/08 01:57:48;;;;;;;;;0.00;0.00;;;;;;;;5122357;27;8822;-84
2022/09/08 02:00:14;;;;;;;;;2.50;0.00;;;;;;;;5139206;28;8808;-85
2022/09/08 02:02:42;;;;;;;;;1.00;1.00;;;;;;;;5139482;27;8826;-85
2022/09/08 02:05:09;;;;;;;;;1.00;1.00;;;;;;;;5120422;28;8790;-86
2022/09/08 02:07:41;;;;;;;;;2.00;1.00;;;;;;;;5123627;28;8762;-88
2022/09/08 02:10:13;;;;;;;;;0.00;0.00;;;;;;;;5148240;27;9368;-88
2022/09/08 02:12:42;;;;;;;;;1.75;0.75;;;;;;;;5129589;27;8747;-83
2022/09/08 02:15:16;;;;;;;;;1.25;0.50;;;;;;;;5128637;28;8731;-84
2022/09/08 02:18:02;;;;;;;;;1.00;0.75;;;;;;;;5123021;27;8792;-84
2022/09/08 02:20:35;;;;;;;;;3.25;1.00;;;;;;;;5121614;28;8754;-87
2022/09/08 02:23:07;;;;;;;;;0.25;0.25;;;;;;;;5137281;27;8809;-86
2022/09/08 02:25:43;;;;;;;;;3.00;0.25;;;;;;;;5161142;27;8717;-84
2022/09/08 02:28:15;;;;;;;;;0.00;0.00;;;;;;;;5138714;27;8755;-86
2022/09/08 02:30:41;;;;;;;;;1.00;0.00;;;;;;;;5138361;27;8785;-87
2022/09/08 02:33:10;;;;;;;;;1.00;1.00;;;;;;;;5117596;27;8752;-87
2022/09/08 02:35:57;;;;;;;;;0.25;0.25;;;;;;;;5102293;27;11339;-84
2022/09/08 02:38:25;;;;;;;;;1.25;1.25;;;;;;;;5160934;27;8763;-86
2022/09/08 02:40:51;;;;;;;;;1.00;1.00;;;;;;;;5159877;27;8719;-86
2022/09/08 02:43:22;;;;;;;;;1.00;0.00;;;;;;;;5160951;27;8740;-85
2022/09/08 02:49:01;;;;;;;;;2.25;0.25;;;;;;;;5128758;27;8738;-85
2022/09/08 02:51:28;;;;;;;;;1.00;1.00;;;;;;;;5120638;28;8735;-84
2022/09/08 02:53:59;;;;;;;;;2.25;1.00;;;;;;;;5135401;28;8782;-83
2022/09/08 02:56:35;;;;;;;;;0.25;0.25;;;;;;;;5120866;27;8750;-85
2022/09/08 02:59:13;;;;;;;;;0.25;0.25;;;;;;;;5129691;28;8753;-85
2022/09/08 03:01:43;;;;;;;;;0.75;0.00;;;;;;;;5137676;27;8833;-86
2022/09/08 03:04:09;;;;;;;;;0.50;0.50;;;;;;;;5160478;27;8752;-87
2022/09/08 03:06:38;;;;;;;;;1.25;1.25;;;;;;;;5149575;27;8739;-86
2022/09/08 03:09:04;;;;;;;;;1.00;1.00;;;;;;;;5142080;27;8847;-87
2022/09/08 03:11:31;;;;;;;;;1.25;0.25;;;;;;;;5142044;27;8717;-85
2022/09/08 03:13:59;;;;;;;;;0.50;0.00;;;;;;;;5120901;27;8737;-83
2022/09/08 03:16:26;;;;;;;;;1.75;1.75;;;;;;;;5119561;28;8876;-86
2022/09/08 03:18:53;;;;;;;;;2.00;2.00;;;;;;;;5137557;28;8729;-85
2022/09/08 03:21:21;;;;;;;;;1.00;1.00;;;;;;;;5150133;27;8727;-86
2022/09/08 03:23:50;;;;;;;;;1.00;0.50;;;;;;;;5138118;28;8876;-85
2022/09/08 03:26:17;;;;;;;;;2.00;1.00;;;;;;;;5120946;28;8744;-84
2022/09/08 03:28:44;;;;;;;;;2.00;1.00;;;;;;;;5139905;27;8745;-86
2022/09/08 03:31:14;;;;;;;;;1.75;1.00;;;;;;;;5145786;27;8768;-87
2022/09/08 03:33:40;;;;;;;;;2.00;2.00;;;;;;;;5138404;28;8718;-85
2022/09/08 03:36:10;;;;;;;;;2.00;0.75;;;;;;;;5136924;27;8729;-85
2022/09/08 03:38:37;;;;;;;;;3.00;1.00;;;;;;;;5136935;27;8800;-85
2022/09/08 03:41:06;;;;;;;;;3.75;1.75;;;;;;;;5138663;27;8750;-83
2022/09/08 03:43:34;;;;;;;;;1.75;1.75;;;;;;;;5136742;28;8791;-82
2022/09/08 03:46:00;;;;;;;;;2.00;1.75;;;;;;;;5118673;28;8766;-84
2022/09/08 03:48:25;;;;;;;;;3.67;1.33;;;;;;;;5127173;27;8785;-85
2022/09/08 03:50:52;;;;;;;;;2.00;0.67;;;;;;;;5119671;28;8818;-86
2022/09/08 03:53:20;;;;;;;;;2.00;1.25;;;;;;;;5133507;27;8767;-87
2022/09/08 03:55:51;;;;;;;;;2.00;2.00;;;;;;;;5136750;28;8800;-87
2022/09/08 03:58:17;;;;;;;;;2.00;2.00;;;;;;;;5119123;28;8739;-86
2022/09/08 04:00:43;;;;;;;;;1.00;1.00;;;;;;;;5119581;28;8822;-83
2022/09/08 04:03:23;;;;;;;;;0.25;0.25;;;;;;;;5121137;28;8743;-86
2022/09/08 04:05:48;;;;;;;;;1.75;1.00;;;;;;;;5153456;27;8894;-87
2022/09/08 04:08:14;;;;;;;;;2.00;1.00;;;;;;;;5158641;27;8781;-85
2022/09/08 04:10:41;;;;;;;;;0.33;0.33;;;;;;;;5156519;27;8857;-85
2022/09/08 04:13:13;;;;;;;;;1.00;1.00;;;;;;;;5135099;27;8776;-85
2022/09/08 04:15:40;;;;;;;;;1.25;1.25;;;;;;;;5138456;27;8745;-85
2022/09/08 04:18:05;;;;;;;;;2.75;2.25;;;;;;;;5153661;27;8748;-83
2022/09/08 04:20:31;;;;;;;;;2.00;2.00;;;;;;;;5157751;27;8804;-84
2022/09/08 04:22:57;;;;;;;;;3.00;0.67;;;;;;;;5143041;27;8824;-82
2022/09/08 04:25:23;;;;;;;;;1.50;1.50;;;;;;;;5154977;27;8716;-82
2022/09/08 04:27:51;;;;;;;;;1.67;1.67;;;;;;;;5137885;27;8818;-85
2022/09/08 04:33:20;;;;;;;;;2.50;1.00;;;;;;;;5154170;27;8736;-85
2022/09/08 04:35:46;;;;;;;;;3.67;3.67;;;;;;;;5153182;27;8821;-84
2022/09/08 04:38:12;;;;;;;;;1.67;1.67;;;;;;;;5151976;27;8841;-84
2022/09/08 04:41:04;;;;;;;;;;;;;;;;;;;;;
2022/09/08 04:43:52;;;;;;;;;1.25;1.25;;;;;;;;5139868;27;36429;-86
2022/09/08 04:46:18;;;;;;;;;2.25;2.25;;;;;;;;5124110;27;8767;-84
2022/09/08 04:48:51;;;;;;;;;3.00;2.00;;;;;;;;5138003;27;8744;-84
2022/09/08 04:51:19;;;;;;;;;1.75;1.00;;;;;;;;5138793;27;8733;-84
2022/09/08 04:53:55;;;;;;;;;3.50;3.00;;;;;;;;5132121;27;8851;-86
2022/09/08 04:56:42;;;;;;;;;3.50;2.25;;;;;;;;5123580;27;8728;-83
2022/09/08 04:59:10;;;;;;;;;2.75;1.75;;;;;;;;5139355;27;8738;-85
2022/09/08 05:01:36;;;;;;;;;1.50;1.50;;;;;;;;5141048;27;8801;-85
2022/09/08 05:04:02;;;;;;;;;2.00;2.00;;;;;;;;5155156;27;8736;-81
2022/09/08 05:06:31;;;;;;;;;2.00;1.00;;;;;;;;5138299;27;8767;-86
2022/09/08 05:09:04;;;;;;;;;1.25;1.00;;;;;;;;5154135;27;8733;-85
2022/09/08 05:11:31;;;;;;;;;3.00;1.00;;;;;;;;5137857;27;8800;-84
2022/09/08 05:14:17;;;;;;;;;1.00;1.00;;;;;;;;5129384;27;8824;-84
2022/09/08 05:16:43;;;;;;;;;1.00;1.00;;;;;;;;5151842;27;8899;-86
2022/09/08 05:19:11;;;;;;;;;1.33;1.33;;;;;;;;5139606;27;8824;-80
2022/09/08 05:21:36;;;;;;;;;3.25;2.00;;;;;;;;5157377;27;8724;-86
2022/09/08 05:24:03;;;;;;;;;1.67;1.00;;;;;;;;5158300;27;8839;-88
2022/09/08 05:26:29;;;;;;;;;3.00;1.75;;;;;;;;5145423;27;8840;-88
2022/09/08 05:28:55;;;;;;;;;5.33;4.00;;;;;;;;5158519;27;8852;-88
2022/09/08 05:31:26;;;;;;;;;1.67;1.67;;;;;;;;5158918;27;8778;-89
2022/09/08 05:33:54;;;;;;;;;4.75;3.00;;;;;;;;5141876;27;8776;-90
2022/09/08 05:36:22;;;;;;;;;3.00;2.00;;;;;;;;5159168;27;8721;-88
2022/09/08 05:38:47;;;;;;;;;1.00;1.00;;;;;;;;5142129;27;8807;-89
2022/09/08 05:44:42;;;;;;;;;1.00;1.00;;;;;;;;5172770;27;8757;-80
2022/09/08 05:47:09;;;;;;;;;7.50;3.00;;;;;;;;5150635;27;8814;-80
2022/09/08 06:03:32;;;;;;;;;2.00;1.00;;;;;;;;4938681;28;8803;-81
2022/09/08 06:06:30;;;;;;;;;;;;;;;;;;;;;
2022/09/08 06:09:06;;;;;;;;;5.00;1.00;;;;;;;;5086942;28;36049;-79
2022/09/08 06:11:47;;;;;;;;;1.40;1.40;;;;;;;;5089083;28;9306;-84
2022/09/08 06:14:27;;;;;;;;;2.75;0.75;;;;;;;;5088034;28;8839;-82
2022/09/08 06:23:27;;;;;;;;;3.00;3.00;;;;;;;;5041798;28;8780;-82
2022/09/08 06:25:53;;;;;;;;;1.00;1.00;;;;;;;;5105145;27;8979;-85
2022/09/08 06:43:54;;;;;;;;;3.00;2.20;;;;;;;;5159370;27;8697;-82
2022/09/08 06:46:35;;;;;;;;;2.20;2.20;;;;;;;;5142597;27;8810;-86
2022/09/08 06:49:01;;;;;;;;;2.40;2.00;;;;;;;;5134408;27;8823;-81
2022/09/08 06:51:41;;;;;;;;;1.25;1.25;;;;;;;;5148893;27;8774;-81
2022/09/08 06:54:42;;;;;;;;;3.20;1.80;;;;;;;;5139549;27;8979;-85
2022/09/08 06:57:14;;;;;;;;;1.00;1.00;;;;;;;;5127664;27;8767;-89
2022/09/08 07:00:07;;;;;;;;;6.40;3.00;;;;;;;;5156050;27;8769;-86
2022/09/08 07:03:10;;;;;;;;;;;;;;;;;;;;;
2022/09/08 07:08:50;;;;;;;;;2.60;2.60;;;;;;;;5087974;22;8738;-75
2022/09/08 07:11:35;;;;;;;;;4.60;3.60;;;;;;;;5105931;27;8813;-77
2022/09/08 07:14:10;;;;;;;;;4.40;1.60;;;;;;;;5106059;27;8806;-77
2022/09/08 07:16:35;;;;;;;;;2.00;2.00;;;;;;;;5099638;28;8884;-80
2022/09/08 07:19:01;;;;;;;;;3.25;3.00;;;;;;;;5105693;27;8815;-79
2022/09/08 07:21:26;;;;;;;;;4.50;2.00;;;;;;;;5109769;27;8854;-79
2022/09/08 07:23:51;;;;;;;;;3.75;2.50;;;;;;;;5110803;28;8835;-78
2022/09/08 07:26:38;;;;;;;;;0.75;0.75;;;;;;;;5109450;28;9579;-77
2022/09/08 07:29:13;;;;;;;;;2.00;2.00;;;;;;;;5102385;28;8783;-77
2022/09/08 07:31:41;;;;;;;;;2.40;2.20;;;;;;;;5102459;27;8814;-76
2022/09/08 07:34:11;;;;;;;;;2.60;2.00;;;;;;;;5103861;28;8818;-77
2022/09/08 07:37:06;;;;;;;;;4.00;2.60;;;;;;;;5094639;27;8767;-75
2022/09/08 07:39:50;;;;;;;;;3.20;2.00;;;;;;;;5093954;27;8797;-78
2022/09/08 07:42:15;;;;;;;;;1.20;1.20;;;;;;;;5097801;28;8819;-76
2022/09/08 07:44:41;;;;;;;;;2.50;2.00;;;;;;;;5105253;27;8830;-77
2022/09/08 07:47:25;;;;;;;;;5.00;2.00;;;;;;;;5106446;28;8877;-79
2022/09/08 07:50:09;;;;;;;;;4.00;2.80;;;;;;;;5099313;27;8811;-76
2022/09/08 07:52:53;;;;;;;;;3.40;3.40;;;;;;;;5088890;27;8798;-76
2022/09/08 07:55:37;;;;;;;;;5.00;2.80;;;;;;;;5102547;28;8821;-78
2022/09/08 07:58:18;;;;;;;;;0.00;0.00;;;;;;;;5114152;27;8775;-77
2022/09/08 08:00:51;;;;;;;;;3.00;2.60;;;;;;;;5108260;27;8778;-78
2022/09/08 08:03:35;;;;;;;;;1.60;1.60;;;;;;;;5120801;27;9694;-75
2022/09/08 08:06:04;;;;;;;;;6.20;3.20;;;;;;;;5109602;27;8771;-76
2022/09/08 08:08:48;;;;;;;;;8.20;5.00;;;;;;;;5102418;27;8807;-77
2022/09/08 08:11:20;;;;;;;;;1.80;1.80;;;;;;;;5107820;27;8818;-76
2022/09/08 08:13:45;;;;;;;;;5.80;3.80;;;;;;;;5107585;28;8775;-74
2022/09/08 08:16:16;;;;;;;;;4.25;2.50;;;;;;;;5095074;27;8872;-76
2022/09/08 08:19:01;;;;;;;;;5.40;2.80;;;;;;;;5107681;27;8976;-74
2022/09/08 08:21:34;;;;;;;;;1.20;1.20;;;;;;;;5108294;27;8860;-76
2022/09/08 08:24:18;;;;;;;;;3.50;2.00;;;;;;;;5089609;28;8750;-76
2022/09/08 08:26:43;;;;;;;;;4.50;4.00;;;;;;;;5095117;28;10004;-76
2022/09/08 08:29:24;;;;;;;;;3.50;2.00;;;;;;;;5108914;27;8884;-78
2022/09/08 08:31:52;;;;;;;;;3.00;2.00;;;;;;;;5100268;27;8736;-77
2022/09/08 08:34:24;;;;;;;;;3.00;2.60;;;;;;;;5116462;27;8791;-75
2022/09/08 08:36:50;;;;;;;;;2.80;2.80;;;;;;;;5107346;28;8819;-78
2022/09/08 08:39:18;;;;;;;;;6.20;2.60;;;;;;;;5108800;27;8803;-78
2022/09/08 08:41:56;;;;;;;;;4.25;3.00;;;;;;;;5108309;28;8808;-79
2022/09/08 08:44:40;;;;;;;;;4.00;2.00;;;;;;;;5104093;27;8815;-79
2022/09/08 08:47:19;;;;;;;;;3.20;3.00;;;;;;;;5100167;28;8827;-80
2022/09/08 08:49:44;;;;;;;;;3.75;2.75;;;;;;;;5108955;27;8927;-79
2022/09/08 08:52:09;;;;;;;;;1.00;1.00;;;;;;;;5106391;27;8830;-79
2022/09/08 08:54:46;;;;;;;;;2.00;1.00;;;;;;;;5104672;28;8943;-80
2022/09/08 08:57:30;;;;;;;;;1.60;1.20;;;;;;;;5116407;27;8806;-80
2022/09/08 08:59:55;;;;;;;;;4.40;2.40;;;;;;;;5095059;27;8923;-79
2022/09/08 09:02:24;;;;;;;;;5.00;3.50;;;;;;;;5100469;27;8821;-81
2022/09/08 09:05:02;;;;;;;;;2.20;2.00;;;;;;;;5103134;27;8934;-79
2022/09/08 09:07:46;;;;;;;;;4.00;2.00;;;;;;;;5098522;27;8825;-78
2022/09/08 09:10:30;;;;;;;;;3.80;2.00;;;;;;;;5093649;28;9378;-78
2022/09/08 09:13:01;;;;;;;;;3.60;2.40;;;;;;;;5112091;27;8741;-79
2022/09/08 09:15:42;;;;;;;;;4.00;4.00;;;;;;;;5112417;28;8879;-79
2022/09/08 09:18:07;;;;;;;;;2.00;2.00;;;;;;;;5112055;27;8822;-80
2022/09/08 09:20:42;;;;;;;;;1.25;1.25;;;;;;;;5110692;28;8900;-78
2022/09/08 09:23:23;;;;;;;;;1.00;1.00;;;;;;;;5105813;27;9706;-74
2022/09/08 09:25:54;;;;;;;;;1.00;1.00;;;;;;;;5110142;27;8786;-77
2022/09/08 09:28:27;;;;;;;;;6.20;3.80;;;;;;;;5099342;28;8740;-79
2022/09/08 09:30:58;;;;;;;;;3.00;2.00;;;;;;;;5111037;27;8803;-76
2022/09/08 09:33:35;;;;;;;;;5.00;3.00;;;;;;;;5109178;27;8803;-77
2022/09/08 09:36:01;;;;;;;;;3.00;2.00;;;;;;;;5103018;27;8799;-78
2022/09/08 09:38:35;;;;;;;;;3.67;2.67;;;;;;;;5109514;28;8884;-77
2022/09/08 09:41:11;;;;;;;;;4.00;1.40;;;;;;;;5109714;28;8825;-79
2022/09/08 09:43:36;;;;;;;;;4.50;4.00;;;;;;;;5099688;27;8841;-79
2022/09/08 09:46:01;;;;;;;;;4.00;3.00;;;;;;;;5109023;27;8954;-79
2022/09/08 09:48:30;;;;;;;;;1.00;1.00;;;;;;;;5111386;27;8883;-78
2022/09/08 09:51:13;;;;;;;;;2.60;1.00;;;;;;;;5106510;28;8790;-79
2022/09/08 09:53:44;;;;;;;;;4.60;3.00;;;;;;;;5105213;27;8811;-78
2022/09/08 09:56:15;;;;;;;;;4.00;3.00;;;;;;;;5103378;27;8787;-77
2022/09/08 09:59:02;;;;;;;;;1.80;1.80;;;;;;;;5104515;27;8755;-79
2022/09/08 10:01:36;;;;;;;;;2.80;2.00;;;;;;;;5099741;27;10320;-79
2022/09/08 10:04:27;;;;;;;;;2.80;1.40;;;;;;;;5106185;27;8797;-80
2022/09/08 10:07:11;;;;;;;;;1.20;1.00;;;;;;;;5092599;28;8789;-77
2022/09/08 10:09:42;;;;;;;;;2.40;2.20;;;;;;;;5104610;27;8811;-76
2022/09/08 10:12:12;;;;;;;;;4.80;2.00;;;;;;;;5109274;27;8779;-75
2022/09/08 10:14:37;;;;;;;;;3.20;1.80;;;;;;;;5101390;27;8893;-76
2022/09/08 10:17:30;;;;;;;;;4.75;1.00;;;;;;;;5107085;27;8826;-73
2022/09/08 10:20:10;;;;;;;;;2.00;2.00;;;;;;;;5100160;27;8791;-78
2022/09/08 10:22:55;;;;;;;;;1.00;1.00;;;;;;;;5116531;27;8915;-79
2022/09/08 10:25:32;;;;;;;;;3.00;2.00;;;;;;;;5117896;27;8793;-79
2022/09/08 10:28:18;;;;;;;;;4.60;2.00;;;;;;;;5099540;27;8779;-76
2022/09/08 10:31:02;;;;;;;;;1.80;1.00;;;;;;;;5071863;27;8819;-77
2022/09/08 10:33:27;;;;;;;;;1.80;1.20;;;;;;;;5110569;27;8867;-77
2022/09/08 10:35:52;;;;;;;;;4.25;2.00;;;;;;;;5104396;27;8803;-77
2022/09/08 10:38:30;;;;;;;;;2.00;1.00;;;;;;;;5106009;27;8850;-76
2022/09/08 10:40:55;;;;;;;;;0.80;0.80;;;;;;;;5110463;28;10166;-77
2022/09/08 10:43:20;;;;;;;;;3.75;1.00;;;;;;;;5103416;27;8819;-76
2022/09/08 10:46:14;;;;;;;;;2.25;2.00;;;;;;;;5101667;28;8802;-78
2022/09/08 10:48:58;;;;;;;;;1.00;1.00;;;;;;;;5110000;27;8833;-77
2022/09/08 10:51:46;;;;;;;;;0.60;0.60;;;;;;;;5108861;27;8900;-75
2022/09/08 10:54:34;;;;;;;;;2.40;2.40;;;;;;;;5090673;28;8795;-76
2022/09/08 10:57:00;;;;;;;;;1.60;1.00;;;;;;;;5115094;27;8795;-79
2022/09/08 10:59:37;;;;;;;;;1.00;1.00;;;;;;;;5109969;27;8819;-73
2022/09/08 11:02:02;;;;;;;;;1.60;1.00;;;;;;;;5109502;27;8829;-76
2022/09/08 11:04:43;;;;;;;;;1.00;1.00;;;;;;;;5101870;27;8797;-74
2022/09/08 11:07:14;;;;;;;;;2.00;2.00;;;;;;;;5107120;27;8823;-74
2022/09/08 11:09:45;;;;;;;;;0.20;0.20;;;;;;;;5093189;28;9723;-74
2022/09/08 11:12:16;;;;;;;;;1.00;1.00;;;;;;;;5104045;28;8791;-73
2022/09/08 11:15:00;;;;;;;;;3.00;1.00;;;;;;;;5103735;27;8807;-76
2022/09/08 11:17:26;;;;;;;;;1.20;1.20;;;;;;;;5101455;27;8775;-75
2022/09/08 11:20:02;;;;;;;;;1.50;1.50;;;;;;;;5102522;27;8829;-74
2022/09/08 11:22:39;;;;;;;;;2.00;2.00;;;;;;;;5104025;27;8742;-72
2022/09/08 11:25:04;;;;;;;;;2.40;1.40;;;;;;;;5103702;27;8868;-75
2022/09/08 11:27:33;;;;;;;;;1.00;1.00;;;;;;;;5098731;28;8835;-72
2022/09/08 11:30:11;;;;;;;;;1.00;1.00;;;;;;;;5102147;27;8787;-75
2022/09/08 11:32:40;;;;;;;;;2.80;2.20;;;;;;;;5105325;27;8787;-75
2022/09/08 11:35:14;;;;;;;;;2.40;0.80;;;;;;;;5107033;27;8929;-73
2022/09/08 11:37:39;;;;;;;;;1.00;1.00;;;;;;;;5105993;27;8807;-74
2022/09/08 11:40:21;;;;;;;;;2.00;0.25;;;;;;;;5100260;27;8956;-74
2022/09/08 11:42:59;;;;;;;;;0.00;0.00;;;;;;;;5093303;27;8788;-73
2022/09/08 11:45:24;;;;;;;;;0.00;0.00;;;;;;;;5083628;27;43419;-74
2022/09/08 11:47:59;;;;;;;;;0.00;0.00;;;;;;;;5069592;27;45753;-74
2022/09/08 11:50:25;;;;;;;;;0.00;0.00;;;;;;;;5062637;28;45397;-73
2022/09/08 11:53:01;;;;;;;;;1.00;1.00;;;;;;;;5066022;27;45739;-73
2022/09/08 11:55:45;;;;;;;;;0.00;0.00;;;;;;;;5066879;27;45550;-74
2022/09/08 11:58:13;;;;;;;;;1.00;0.75;;;;;;;;5060127;27;46076;-75
2022/09/08 12:01:00;;;;;;;;;0.00;0.00;;;;;;;;5066821;28;47368;-74
2022/09/08 12:03:34;;;;;;;;;1.75;0.75;;;;;;;;5036922;27;46321;-75
2022/09/08 12:05:59;;;;;;;;;1.00;1.00;;;;;;;;5067720;27;45414;-74
2022/09/08 12:08:27;;;;;;;;;2.00;0.50;;;;;;;;5064667;27;45498;-74
2022/09/08 12:10:56;;;;;;;;;1.00;1.00;;;;;;;;5069577;27;45552;-75
2022/09/08 12:13:41;;;;;;;;;1.75;1.00;;;;;;;;5070100;27;45851;-74
2022/09/08 12:16:25;;;;;;;;;1.25;0.00;;;;;;;;5064970;27;46582;-75
2022/09/08 12:18:51;;;;;;;;;2.00;1.00;;;;;;;;5068324;27;45391;-74
2022/09/08 12:21:36;;;;;;;;;0.00;0.00;;;;;;;;5070361;27;45701;-73
2022/09/08 12:24:01;;;;;;;;;1.00;1.00;;;;;;;;5061585;28;46972;-73
2022/09/08 12:26:44;;;;;;;;;0.75;0.00;;;;;;;;5067513;27;45548;-75
2022/09/08 12:29:16;;;;;;;;;0.00;0.00;;;;;;;;5067908;28;45607;-73
2022/09/08 12:31:44;;;;;;;;;1.00;1.00;;;;;;;;5068450;27;45784;-76
2022/09/08 12:34:09;;;;;;;;;1.25;1.25;;;;;;;;5065294;28;45656;-74
2022/09/08 12:36:44;;;;;;;;;1.00;1.00;;;;;;;;5073299;27;45612;-76
2022/09/08 12:39:09;;;;;;;;;3.50;2.25;;;;;;;;5056135;28;45823;-73
2022/09/08 12:41:37;;;;;;;;;1.00;0.00;;;;;;;;5069823;27;45427;-77
2022/09/08 12:44:21;;;;;;;;;2.00;1.00;;;;;;;;5061649;27;45654;-75
2022/09/08 12:47:01;;;;;;;;;1.25;0.25;;;;;;;;5065285;27;45712;-74
2022/09/08 12:49:49;;;;;;;;;1.00;1.00;;;;;;;;5060548;27;45476;-72
2022/09/08 12:52:23;;;;;;;;;1.50;0.25;;;;;;;;5064090;27;45557;-74
2022/09/08 12:55:14;;;;;;;;;1.25;0.75;;;;;;;;5070932;27;46225;-74
2022/09/08 12:57:49;;;;;;;;;1.00;1.00;;;;;;;;5067480;28;45427;-72
2022/09/08 13:00:20;;;;;;;;;2.00;0.50;;;;;;;;5059299;27;45718;-72
2022/09/08 13:02:45;;;;;;;;;3.50;1.00;;;;;;;;5057897;27;45692;-74
2022/09/08 13:05:13;;;;;;;;;2.00;1.00;;;;;;;;5073978;27;45447;-74
2022/09/08 13:07:57;;;;;;;;;4.00;0.00;;;;;;;;5072470;27;45710;-73
2022/09/08 13:10:28;;;;;;;;;2.00;0.50;;;;;;;;5065149;28;45360;-74
2022/09/08 13:12:53;;;;;;;;;3.00;1.00;;;;;;;;5077787;27;45449;-76
2022/09/08 13:15:30;;;;;;;;;0.00;0.00;;;;;;;;5083029;27;46027;-75
2022/09/08 13:18:03;;;;;;;;;2.50;0.50;;;;;;;;5057550;28;45879;-75
2022/09/08 13:20:47;;;;;;;;;1.00;1.00;;;;;;;;5071973;27;45937;-76
2022/09/08 13:23:15;;;;;;;;;1.00;1.00;;;;;;;;5073637;27;45757;-75
2022/09/08 13:25:40;;;;;;;;;2.50;1.50;;;;;;;;5070210;27;45523;-74
2022/09/08 13:28:05;;;;;;;;;0.00;0.00;;;;;;;;5062049;27;46024;-76
2022/09/08 13:30:38;;;;;;;;;1.25;1.00;;;;;;;;5075453;27;45804;-74
2022/09/08 13:33:22;;;;;;;;;3.00;2.25;;;;;;;;5073047;27;45915;-75
2022/09/08 13:36:03;;;;;;;;;1.00;1.00;;;;;;;;5072144;27;46757;-77
2022/09/08 13:38:37;;;;;;;;;1.00;1.00;;;;;;;;5087087;27;45440;-75
2022/09/08 13:41:28;;;;;;;;;0.25;0.25;;;;;;;;5068588;27;45756;-74
2022/09/08 13:43:56;;;;;;;;;3.75;2.00;;;;;;;;5064377;28;46156;-75
2022/09/08 13:46:37;;;;;;;;;1.00;1.00;;;;;;;;5073279;27;45777;-75
2022/09/08 13:49:16;;;;;;;;;1.25;0.50;;;;;;;;5072597;27;45472;-75
2022/09/08 13:51:41;;;;;;;;;0.25;0.00;;;;;;;;5068775;27;45467;-75
2022/09/08 13:54:29;;;;;;;;;2.00;1.00;;;;;;;;5068761;27;45944;-76
2022/09/08 13:57:04;;;;;;;;;1.75;0.75;;;;;;;;5064332;27;46513;-75
2022/09/08 13:59:33;;;;;;;;;1.50;0.75;;;;;;;;5062011;28;45685;-75
2022/09/08 14:01:58;;;;;;;;;1.50;1.00;;;;;;;;5066984;28;45763;-75
2022/09/08 14:04:41;;;;;;;;;1.00;0.00;;;;;;;;5064348;28;45387;-75
2022/09/08 14:07:20;;;;;;;;;3.00;0.00;;;;;;;;5070311;28;47126;-74
2022/09/08 14:10:05;;;;;;;;;0.75;0.75;;;;;;;;5053076;27;45589;-75
2022/09/08 14:12:31;;;;;;;;;2.75;1.75;;;;;;;;5070018;28;45504;-74
2022/09/08 14:15:06;;;;;;;;;1.00;1.00;;;;;;;;5072854;27;45546;-75
2022/09/08 14:17:31;;;;;;;;;2.00;0.25;;;;;;;;5067808;27;47705;-75
2022/09/08 14:19:56;;;;;;;;;0.50;0.00;;;;;;;;5064611;28;45810;-76
2022/09/08 14:22:32;;;;;;;;;0.75;0.75;;;;;;;;5057392;27;45743;-76
2022/09/08 14:24:57;;;;;;;;;1.75;0.00;;;;;;;;5054063;27;45602;-75
2022/09/08 14:27:41;;;;;;;;;2.75;0.50;;;;;;;;5070901;27;46173;-75
2022/09/08 14:30:23;;;;;;;;;3.25;1.00;;;;;;;;5078319;27;45614;-75
2022/09/08 14:32:52;;;;;;;;;5.00;0.25;;;;;;;;5071956;27;45437;-76
2022/09/08 14:35:29;;;;;;;;;4.00;2.00;;;;;;;;5068049;27;46158;-76
2022/09/08 14:37:55;;;;;;;;;0.00;0.00;;;;;;;;5072532;27;45818;-75
2022/09/08 14:40:23;;;;;;;;;0.00;0.00;;;;;;;;5059258;27;45838;-76
2022/09/08 14:43:04;;;;;;;;;0.75;0.75;;;;;;;;5066268;27;45704;-77
2022/09/08 14:46:02;;;;;;;;;0.25;0.00;;;;;;;;5065066;27;45440;-76
2022/09/08 14:48:33;;;;;;;;;0.00;0.00;;;;;;;;5042691;28;45852;-74
2022/09/08 14:51:05;;;;;;;;;0.25;0.25;;;;;;;;5059991;27;45904;-80
2022/09/08 14:53:33;;;;;;;;;0.00;0.00;;;;;;;;5072607;27;45567;-73
2022/09/08 14:56:04;;;;;;;;;0.25;0.25;;;;;;;;5061795;27;45480;-75
2022/09/08 14:58:35;;;;;;;;;0.75;0.00;;;;;;;;5059008;28;46980;-78
2022/09/08 15:01:14;;;;;;;;;1.00;0.00;;;;;;;;5060229;28;45630;-76
2022/09/08 15:03:41;;;;;;;;;1.00;1.00;;;;;;;;5066659;27;45670;-75
2022/09/08 15:06:10;;;;;;;;;2.00;2.00;;;;;;;;5056579;27;46095;-75
2022/09/08 15:08:36;;;;;;;;;1.00;0.00;;;;;;;;5063400;28;47047;-75
2022/09/08 15:11:20;;;;;;;;;1.00;1.00;;;;;;;;5063255;27;45468;-75
2022/09/08 15:13:55;;;;;;;;;2.00;0.00;;;;;;;;5080288;27;45616;-78
2022/09/08 15:16:22;;;;;;;;;0.00;0.00;;;;;;;;5055631;28;45441;-77
2022/09/08 15:18:52;;;;;;;;;0.75;0.75;;;;;;;;5063349;27;47031;-81
2022/09/08 15:21:22;;;;;;;;;0.00;0.00;;;;;;;;5068760;28;45569;-77
2022/09/08 15:23:49;;;;;;;;;0.00;0.00;;;;;;;;5064915;27;45760;-77
2022/09/08 15:26:17;;;;;;;;;0.75;0.75;;;;;;;;5070155;28;45547;-76
2022/09/08 15:29:01;;;;;;;;;0.50;0.50;;;;;;;;5071760;27;45207;-76
2022/09/08 15:31:32;;;;;;;;;4.25;1.50;;;;;;;;5066593;27;45965;-77
2022/09/08 15:34:08;;;;;;;;;3.00;1.00;;;;;;;;5066029;27;45450;-81
2022/09/08 15:36:52;;;;;;;;;3.25;1.25;;;;;;;;5086359;27;46296;-75
2022/09/08 15:39:36;;;;;;;;;0.75;0.00;;;;;;;;5067927;28;46385;-79
2022/09/08 15:42:22;;;;;;;;;0.75;0.00;;;;;;;;5074094;28;45434;-76
2022/09/08 15:45:02;;;;;;;;;2.00;1.00;;;;;;;;5069093;27;45462;-76
2022/09/08 15:47:39;;;;;;;;;3.00;0.00;;;;;;;;5073273;28;46298;-75
2022/09/08 15:50:11;;;;;;;;;2.00;0.25;;;;;;;;5088039;27;47216;-75
2022/09/08 15:52:55;;;;;;;;;3.00;1.00;;;;;;;;5066922;27;45626;-76
2022/09/08 15:55:30;;;;;;;;;0.75;0.00;;;;;;;;5056335;28;46609;-75
2022/09/08 15:57:56;;;;;;;;;0.50;0.00;;;;;;;;5062422;27;45945;-77
2022/09/08 16:00:24;;;;;;;;;1.00;1.00;;;;;;;;5070698;28;45920;-76
2022/09/08 16:03:01;;;;;;;;;0.75;0.00;;;;;;;;5068708;27;45866;-75
2022/09/08 16:05:46;;;;;;;;;1.50;0.00;;;;;;;;5067927;27;45773;-74
2022/09/08 16:08:18;;;;;;;;;0.25;0.25;;;;;;;;5068007;27;46083;-74
2022/09/08 16:10:58;;;;;;;;;1.00;0.00;;;;;;;;5062693;27;47850;-72
2022/09/08 16:13:28;;;;;;;;;0.00;0.00;;;;;;;;5068783;27;45878;-73
2022/09/08 16:15:56;;;;;;;;;0.50;0.00;;;;;;;;5066793;27;45404;-76
2022/09/08 16:18:30;;;;;;;;;3.50;1.00;;;;;;;;5066736;27;45602;-74
2022/09/08 16:21:16;;;;;;;;;0.50;0.50;;;;;;;;5065854;27;45767;-75
2022/09/08 16:23:47;;;;;;;;;0.00;0.00;;;;;;;;5060704;27;45521;-74